Time;durP1;ratioP1;P1;durP2;ratioP2;P2;SDS_P1;SDS_P2;PMS_P1;PMS_P2;Temp;Humidity;BMP_temperature;BMP_pressure;BME280_temperature;BME280_humidity;BME280_pressure;Samples;Min_cycle;Max_cycle;Signal;HPM_P1;HPM_P2
2023/01/18 00:01:52;;;;;;;15.95;11.13;;;10.40;89.60;;;;;;5043754;28;20033;-63
2023/01/18 00:04:18;;;;;;;18.00;10.00;;;10.30;89.50;;;;;;5055023;28;20086;-61
2023/01/18 00:06:44;;;;;;;13.35;9.43;;;10.40;89.80;;;;;;5057354;28;20382;-62
2023/01/18 00:09:09;;;;;;;14.88;9.68;;;10.40;90.00;;;;;;5050397;28;20033;-59
2023/01/18 00:11:35;;;;;;;11.07;8.25;;;10.40;90.00;;;;;;5055858;28;20033;-57
2023/01/18 00:14:01;;;;;;;15.98;9.73;;;10.30;90.00;;;;;;5058280;28;20029;-57
2023/01/18 00:16:29;;;;;;;17.33;9.75;;;10.40;90.10;;;;;;5055471;28;20028;-48
2023/01/18 00:18:56;;;;;;;13.20;9.88;;;10.30;90.10;;;;;;5053212;28;20048;-52
2023/01/18 00:21:23;;;;;;;13.82;10.25;;;10.40;90.10;;;;;;5055253;28;20029;-59
2023/01/18 00:23:50;;;;;;;15.13;10.27;;;10.40;90.10;;;;;;5056779;28;20032;-58
2023/01/18 00:26:15;;;;;;;13.65;8.70;;;10.30;90.10;;;;;;5054066;28;20033;-51
2023/01/18 00:28:42;;;;;;;14.93;10.50;;;10.40;90.10;;;;;;5055543;28;20035;-51
2023/01/18 00:31:18;;;;;;;13.73;9.48;;;10.40;90.20;;;;;;5054046;28;20032;-59
2023/01/18 00:33:45;;;;;;;18.88;9.73;;;10.40;90.10;;;;;;5047699;28;20494;-58
2023/01/18 00:36:13;;;;;;;17.23;9.95;;;10.30;90.10;;;;;;5055387;28;20032;-55
2023/01/18 00:38:38;;;;;;;13.15;9.10;;;10.40;90.10;;;;;;5043692;28;20111;-54
2023/01/18 00:41:04;;;;;;;12.27;8.65;;;10.30;90.10;;;;;;5046537;28;20151;-56
2023/01/18 00:43:39;;;;;;;13.95;9.40;;;10.30;90.10;;;;;;5060061;28;20089;-59
2023/01/18 00:46:27;;;;;;;12.40;8.73;;;10.30;90.20;;;;;;5046823;28;20039;-54
2023/01/18 00:48:54;;;;;;;14.02;9.52;;;10.30;90.20;;;;;;5051591;28;20072;-52
2023/01/18 00:51:22;;;;;;;12.32;8.63;;;10.30;90.20;;;;;;5053547;28;20387;-59
2023/01/18 00:53:48;;;;;;;13.55;9.48;;;10.30;90.20;;;;;;5059238;28;20041;-58
2023/01/18 00:56:17;;;;;;;17.05;10.13;;;10.30;90.20;;;;;;5049269;28;20032;-58
2023/01/18 00:58:43;;;;;;;14.65;9.85;;;10.30;90.20;;;;;;5055666;28;20493;-57
2023/01/18 01:01:09;;;;;;;16.38;11.32;;;10.30;90.20;;;;;;5050935;28;20033;-57
2023/01/18 01:06:44;;;;;;;15.32;10.20;;;10.30;90.20;;;;;;5052273;28;20071;-56
2023/01/18 01:09:17;;;;;;;12.02;9.02;;;10.20;88.30;;;;;;5049706;28;20029;-54
2023/01/18 01:28:08;;;;;;;12.85;9.25;;;9.50;90.50;;;;;;5045101;28;20117;-55
2023/01/18 01:30:34;;;;;;;12.27;9.10;;;9.60;90.80;;;;;;5053967;28;20150;-56
2023/01/18 01:32:59;;;;;;;12.63;8.60;;;9.60;91.00;;;;;;5048631;28;20029;-56
2023/01/18 01:35:33;;;;;;;12.60;8.65;;;9.70;91.10;;;;;;5050547;28;20467;-55
2023/01/18 01:37:59;;;;;;;11.88;8.50;;;9.70;91.10;;;;;;5047926;28;20082;-57
2023/01/18 01:40:25;;;;;;;12.73;8.88;;;9.80;91.20;;;;;;5045478;28;20111;-57
2023/01/18 01:42:50;;;;;;;13.63;9.95;;;9.80;91.20;;;;;;5052279;28;20032;-57
2023/01/18 01:45:18;;;;;;;12.27;9.05;;;9.80;91.20;;;;;;5048539;28;20067;-57
2023/01/18 01:47:45;;;;;;;9.90;7.50;;;9.90;91.20;;;;;;5057015;28;20033;-56
2023/01/18 01:50:38;;;;;;;11.68;7.93;;;9.90;91.20;;;;;;5047547;28;20033;-55
2023/01/18 01:53:05;;;;;;;10.20;7.53;;;9.90;91.00;;;;;;5044237;28;20131;-60
2023/01/18 01:55:34;;;;;;;9.50;7.53;;;9.90;90.40;;;;;;5049554;28;20063;-56
2023/01/18 01:58:13;;;;;;;13.35;8.13;;;9.90;89.90;;;;;;5048782;28;20434;-56
2023/01/18 02:00:39;;;;;;;17.15;10.05;;;9.90;89.20;;;;;;5048889;28;20058;-62
2023/01/18 02:03:07;;;;;;;15.80;10.55;;;9.80;88.40;;;;;;5048155;28;20101;-60
2023/01/18 02:05:39;;;;;;;11.10;8.82;;;9.70;87.60;;;;;;5051005;28;20120;-53
2023/01/18 02:08:10;;;;;;;11.80;8.40;;;9.60;87.10;;;;;;5049115;28;20044;-56
2023/01/18 02:10:37;;;;;;;11.68;8.30;;;9.40;86.40;;;;;;5054680;28;20032;-54
2023/01/18 02:13:04;;;;;;;11.43;8.13;;;9.20;86.00;;;;;;5048217;28;20037;-54
2023/01/18 02:16:04;;;;;;;15.18;10.63;;;9.10;86.20;;;;;;5051157;28;20112;-55
2023/01/18 02:18:41;;;;;;;19.48;11.93;;;8.90;86.50;;;;;;5052825;28;20036;-53
2023/01/18 02:21:35;;;;;;;11.60;8.32;;;8.80;87.90;;;;;;5051050;28;20123;-55
2023/01/18 02:24:19;;;;;;;11.45;8.77;;;8.70;89.00;;;;;;5054403;28;20033;-57
2023/01/18 02:27:20;;;;;;;12.85;8.98;;;8.70;89.90;;;;;;5041554;28;20057;-61
2023/01/18 02:30:04;;;;;;;15.87;9.13;;;8.80;90.40;;;;;;5048736;28;20041;-60
2023/01/18 02:32:38;;;;;;;12.85;8.80;;;8.80;90.60;;;;;;5051610;28;20053;-56
2023/01/18 02:35:16;;;;;;;17.95;10.43;;;8.80;90.70;;;;;;5042029;28;20399;-57
2023/01/18 02:37:54;;;;;;;13.55;9.70;;;8.90;90.70;;;;;;5051836;28;20135;-54
2023/01/18 02:40:41;;;;;;;11.65;9.60;;;8.90;90.70;;;;;;5044330;28;20056;-54
2023/01/18 02:48:42;;;;;;;12.07;8.15;;;9.00;91.30;;;;;;5038903;28;20078;-58
2023/01/18 02:51:08;;;;;;;13.57;9.27;;;9.00;91.50;;;;;;5047652;28;20115;-61
2023/01/18 02:53:39;;;;;;;14.30;8.82;;;9.10;91.90;;;;;;5045090;28;20025;-61
2023/01/18 02:56:27;;;;;;;11.87;8.67;;;9.20;91.80;;;;;;5047113;28;20456;-51
2023/01/18 02:59:13;;;;;;;13.00;9.63;;;9.20;91.40;;;;;;5050213;28;20043;-52
2023/01/18 03:01:54;;;;;;;13.57;9.63;;;9.30;91.40;;;;;;5050273;28;20029;-57
2023/01/18 03:04:53;;;;;;;11.50;8.57;;;9.30;91.20;;;;;;5054309;28;20036;-56
2023/01/18 03:08:08;;;;;;;12.32;8.57;;;9.30;91.20;;;;;;5043965;28;20029;-57
2023/01/18 03:10:36;;;;;;;13.65;8.57;;;9.30;91.00;;;;;;5013594;28;20101;-57
2023/01/18 03:13:12;;;;;;;9.35;6.68;;;9.30;91.10;;;;;;5047585;28;20041;-57
2023/01/18 03:15:41;;;;;;;9.43;7.05;;;9.30;91.30;;;;;;5054618;28;20029;-54
2023/01/18 03:18:24;;;;;;;10.70;8.63;;;9.30;91.40;;;;;;5052095;28;20033;-56
2023/01/18 03:20:55;;;;;;;11.40;8.68;;;9.30;91.40;;;;;;5069292;28;20484;-52
2023/01/18 03:23:41;;;;;;;10.60;7.10;;;9.30;91.40;;;;;;5063425;28;20068;-51
2023/01/18 03:26:09;;;;;;;9.45;7.05;;;9.40;91.20;;;;;;5049973;28;20078;-51
2023/01/18 03:34:43;;;;;;;16.40;9.73;;;9.30;90.60;;;;;;5055200;28;20039;-54
2023/01/18 03:37:41;;;;;;;15.38;9.63;;;9.30;90.40;;;;;;5051431;28;20491;-55
2023/01/18 03:40:17;;;;;;;14.82;8.73;;;9.20;90.10;;;;;;5032750;28;20048;-57
2023/01/18 03:43:10;;;;;;;10.52;8.02;;;9.00;89.80;;;;;;5052223;28;20024;-52
2023/01/18 03:45:42;;;;;;;12.15;8.57;;;8.90;89.60;;;;;;5052867;28;20052;-63
2023/01/18 03:48:09;;;;;;;12.95;8.00;;;8.80;89.60;;;;;;5049750;28;20395;-61
2023/01/18 03:51:13;;;;;;;12.80;8.80;;;8.70;89.70;;;;;;5059711;28;20035;-61
2023/01/18 03:53:59;;;;;;;15.57;9.65;;;8.70;89.80;;;;;;5050329;28;20033;-62
2023/01/18 03:56:42;;;;;;;15.23;10.95;;;8.60;89.60;;;;;;5050206;28;20099;-56
2023/01/18 03:59:08;;;;;;;12.88;9.00;;;8.50;89.00;;;;;;5050037;28;20196;-56
2023/01/18 04:01:34;;;;;;;15.68;10.10;;;8.30;89.10;;;;;;5048742;28;20445;-56
2023/01/18 04:04:00;;;;;;;16.60;10.70;;;8.20;89.20;;;;;;5040069;28;20037;-56
2023/01/18 04:06:26;;;;;;;17.58;11.65;;;8.10;88.90;;;;;;5043893;28;20052;-56
2023/01/18 04:08:52;;;;;;;13.07;9.10;;;8.00;89.30;;;;;;5053862;28;20436;-56
2023/01/18 04:11:18;;;;;;;13.65;9.38;;;7.80;90.20;;;;;;5055614;28;20040;-55
2023/01/18 04:13:44;;;;;;;15.68;10.30;;;7.80;90.70;;;;;;5059969;28;20043;-55
2023/01/18 04:16:09;;;;;;;16.63;10.25;;;7.70;91.10;;;;;;5052638;28;20456;-56
2023/01/18 04:18:35;;;;;;;13.30;8.27;;;7.70;91.70;;;;;;5053936;28;20037;-56
2023/01/18 04:21:01;;;;;;;11.32;8.63;;;7.80;92.00;;;;;;5042965;28;20388;-55
2023/01/18 04:23:26;;;;;;;12.38;9.32;;;7.80;92.90;;;;;;5050719;28;20027;-56
2023/01/18 04:25:52;;;;;;;10.32;8.00;;;7.90;94.60;;;;;;5046268;28;20544;-55
2023/01/18 04:28:24;;;;;;;12.88;8.70;;;8.10;95.30;;;;;;5051520;28;20071;-55
2023/01/18 04:30:50;;;;;;;;;;;8.30;96.00;;;;;;5062794;28;20036;-56
2023/01/18 04:33:16;;;;;;;8.57;6.88;;;8.50;95.70;;;;;;5046952;28;19909;-55
2023/01/18 04:35:42;;;;;;;10.45;8.15;;;8.70;96.10;;;;;;5054565;28;20116;-57
2023/01/18 04:38:08;;;;;;;10.95;7.65;;;8.90;96.20;;;;;;5038749;28;20115;-57
2023/01/18 04:40:33;;;;;;;12.40;9.07;;;9.00;96.30;;;;;;5054390;28;20452;-56
2023/01/18 04:42:59;;;;;;;11.75;8.48;;;9.20;96.30;;;;;;5054182;28;20021;-56
2023/01/18 04:45:25;;;;;;;11.82;8.27;;;9.30;96.30;;;;;;5053522;28;20040;-56
2023/01/18 04:47:50;;;;;;;9.88;7.97;;;9.40;96.20;;;;;;5060404;28;20067;-56
2023/01/18 04:50:16;;;;;;;10.60;8.00;;;9.60;96.20;;;;;;5049651;28;20037;-55
2023/01/18 04:52:42;;;;;;;9.25;6.82;;;9.70;96.20;;;;;;5048211;28;20025;-56
2023/01/18 04:55:08;;;;;;;9.35;7.53;;;9.70;96.00;;;;;;5047152;28;20036;-56
2023/01/18 04:57:33;;;;;;;10.38;8.30;;;9.80;95.90;;;;;;5050167;28;20025;-56
2023/01/18 05:00:01;;;;;;;8.32;7.05;;;9.90;95.90;;;;;;5052183;28;20162;-56
2023/01/18 05:02:26;;;;;;;10.73;7.18;;;10.00;95.80;;;;;;5055194;28;20025;-56
2023/01/18 05:04:52;;;;;;;8.82;6.97;;;10.00;95.70;;;;;;5053774;28;20487;-56
2023/01/18 05:07:17;;;;;;;9.00;7.28;;;10.10;95.70;;;;;;5049762;28;20032;-55
2023/01/18 05:09:43;;;;;;;9.45;6.97;;;10.20;95.60;;;;;;5051690;28;20025;-56
2023/01/18 05:12:09;;;;;;;10.82;7.18;;;10.20;95.50;;;;;;5055155;28;20025;-54
2023/01/18 05:14:34;;;;;;;10.57;7.63;;;10.30;95.40;;;;;;5059049;28;20056;-56
2023/01/18 05:17:00;;;;;;;10.07;6.88;;;10.30;95.50;;;;;;5048804;28;20025;-58
2023/01/18 05:19:29;;;;;;;13.32;8.50;;;10.40;95.50;;;;;;5050374;28;20047;-56
2023/01/18 05:21:55;;;;;;;13.57;9.35;;;10.40;95.40;;;;;;5050256;28;20035;-57
2023/01/18 05:24:21;;;;;;;11.60;7.95;;;10.40;95.30;;;;;;5044409;28;20036;-55
2023/01/18 05:26:47;;;;;;;10.43;8.75;;;10.40;95.00;;;;;;5042980;28;20128;-55
2023/01/18 05:29:12;;;;;;;10.20;7.70;;;10.50;94.90;;;;;;5049842;28;20396;-57
2023/01/18 05:31:38;;;;;;;11.52;8.30;;;10.50;94.80;;;;;;5043386;28;20033;-52
2023/01/18 05:34:03;;;;;;;12.75;8.38;;;10.40;94.80;;;;;;5044680;28;20044;-53
2023/01/18 05:36:29;;;;;;;11.63;8.57;;;10.40;94.80;;;;;;5050175;28;20112;-63
2023/01/18 05:38:55;;;;;;;13.07;8.73;;;10.40;94.90;;;;;;5046384;28;20069;-62
2023/01/18 05:41:20;;;;;;;12.05;8.60;;;10.50;95.00;;;;;;5045880;28;20048;-64
2023/01/18 05:43:46;;;;;;;13.98;9.43;;;10.50;95.00;;;;;;5044125;28;20049;-62
2023/01/18 05:46:12;;;;;;;10.52;7.82;;;10.40;94.90;;;;;;5039014;28;20041;-57
2023/01/18 05:48:37;;;;;;;11.80;8.27;;;10.50;93.90;;;;;;5058694;28;20064;-58
2023/01/18 05:51:08;;;;;;;12.55;8.38;;;10.30;92.30;;;;;;5050502;28;20061;-57
2023/01/18 05:53:34;;;;;;;14.52;8.48;;;10.20;92.00;;;;;;5038644;28;20033;-57
2023/01/18 05:56:05;;;;;;;14.57;9.07;;;10.00;92.00;;;;;;5039348;28;20033;-63
2023/01/18 05:58:31;;;;;;;13.10;8.33;;;9.80;92.10;;;;;;5049983;28;20063;-63
2023/01/18 06:00:57;;;;;;;19.40;11.30;;;9.60;92.60;;;;;;5044936;28;20274;-54
2023/01/18 06:03:24;;;;;;;15.82;10.32;;;9.50;92.90;;;;;;5039175;28;20033;-59
2023/01/18 06:05:50;;;;;;;13.90;10.18;;;9.40;92.90;;;;;;5051581;28;20039;-62
2023/01/18 06:08:17;;;;;;;16.73;9.77;;;9.30;93.10;;;;;;5046685;28;20094;-62
2023/01/18 06:10:42;;;;;;;15.52;9.80;;;9.10;92.80;;;;;;5041129;28;20433;-63
2023/01/18 06:13:08;;;;;;;12.75;9.00;;;9.00;92.60;;;;;;5039488;28;20083;-61
2023/01/18 06:15:34;;;;;;;14.48;9.32;;;8.80;92.40;;;;;;5051103;28;20025;-61
2023/01/18 06:18:01;;;;;;;12.40;9.65;;;8.60;92.20;;;;;;5047672;28;20043;-63
2023/01/18 06:20:29;;;;;;;15.25;9.45;;;8.40;91.70;;;;;;5049990;28;20395;-63
2023/01/18 06:22:56;;;;;;;15.18;9.75;;;8.20;91.50;;;;;;5051665;28;21107;-61
2023/01/18 06:25:23;;;;;;;15.88;10.43;;;8.00;91.60;;;;;;5047983;28;20041;-60
2023/01/18 06:27:48;;;;;;;17.70;10.60;;;7.80;91.80;;;;;;5047115;28;20041;-61
2023/01/18 06:30:14;;;;;;;15.02;11.18;;;7.60;92.40;;;;;;5052263;28;20068;-60
2023/01/18 06:32:40;;;;;;;14.57;9.68;;;7.50;92.90;;;;;;5041553;28;20455;-62
2023/01/18 06:35:06;;;;;;;11.95;8.38;;;7.40;93.30;;;;;;5048950;28;20033;-61
2023/01/18 06:37:32;;;;;;;11.40;8.43;;;7.30;93.40;;;;;;5039755;28;20061;-62
2023/01/18 06:39:57;;;;;;;13.95;9.82;;;7.30;93.00;;;;;;5033723;28;20167;-61
2023/01/18 06:42:23;;;;;;;12.43;8.60;;;7.20;92.60;;;;;;5048130;28;20198;-57
2023/01/18 06:44:49;;;;;;;17.00;9.90;;;7.10;92.30;;;;;;5038378;28;20072;-56
2023/01/18 06:47:18;;;;;;;13.57;10.05;;;6.90;92.20;;;;;;5031933;28;20033;-55
2023/01/18 06:49:47;;;;;;;13.95;9.15;;;6.80;91.90;;;;;;5040554;28;20044;-58
2023/01/18 06:52:13;;;;;;;13.77;8.93;;;6.70;91.90;;;;;;5033034;28;20056;-55
2023/01/18 06:54:39;;;;;;;15.25;9.20;;;6.50;92.00;;;;;;5041504;28;20515;-53
2023/01/18 06:57:05;;;;;;;14.80;9.38;;;6.40;92.30;;;;;;5030773;28;20165;-57
2023/01/18 06:59:30;;;;;;;13.82;8.90;;;6.30;92.60;;;;;;5040434;28;20032;-57
2023/01/18 07:01:56;;;;;;;15.50;10.00;;;6.20;93.20;;;;;;5032957;28;20087;-58
2023/01/18 07:04:21;;;;;;;13.95;8.48;;;6.20;93.40;;;;;;5029592;28;20132;-57
2023/01/18 07:06:47;;;;;;;14.20;9.57;;;6.10;93.30;;;;;;5028509;28;20087;-58
2023/01/18 07:09:13;;;;;;;12.35;9.00;;;6.10;93.30;;;;;;5033495;28;20094;-57
2023/01/18 07:11:42;;;;;;;14.27;9.77;;;6.10;93.50;;;;;;5033945;28;20070;-56
2023/01/18 07:14:11;;;;;;;17.38;10.63;;;6.10;93.70;;;;;;5043151;28;20675;-58
2023/01/18 07:16:38;;;;;;;16.50;8.77;;;6.10;93.90;;;;;;5034377;28;20033;-57
2023/01/18 07:19:04;;;;;;;12.55;8.88;;;6.10;94.20;;;;;;5037309;28;20407;-57
2023/01/18 07:21:29;;;;;;;15.48;8.75;;;6.20;94.20;;;;;;5038660;28;20067;-57
2023/01/18 07:23:57;;;;;;;14.55;9.75;;;6.20;94.20;;;;;;5033907;28;20061;-54
2023/01/18 07:26:23;;;;;;;13.15;9.30;;;6.30;94.00;;;;;;5047447;28;20021;-53
2023/01/18 07:28:49;;;;;;;13.88;7.90;;;6.30;93.70;;;;;;5036714;28;20033;-57
2023/01/18 07:31:16;;;;;;;10.70;7.85;;;6.30;93.40;;;;;;5041212;28;20048;-58
2023/01/18 07:33:42;;;;;;;13.02;8.48;;;6.30;93.10;;;;;;5034592;28;20034;-56
2023/01/18 07:36:09;;;;;;;10.52;7.32;;;6.30;92.80;;;;;;5031957;28;20095;-53
2023/01/18 07:38:39;;;;;;;12.27;7.82;;;6.30;92.70;;;;;;5030716;28;20172;-57
2023/01/18 07:41:09;;;;;;;11.38;7.95;;;6.30;92.90;;;;;;5035851;28;20094;-54
2023/01/18 07:43:38;;;;;;;12.05;8.15;;;6.30;93.10;;;;;;5031929;28;20048;-52
2023/01/18 07:46:06;;;;;;;10.27;7.80;;;6.30;92.70;;;;;;5018774;28;20115;-53
2023/01/18 07:48:32;;;;;;;12.35;8.18;;;6.30;92.60;;;;;;5030962;28;20051;-55
2023/01/18 07:51:00;;;;;;;11.20;7.97;;;6.30;92.60;;;;;;5025215;28;20041;-55
2023/01/18 07:53:27;;;;;;;11.18;7.57;;;6.30;92.80;;;;;;5022090;28;20028;-54
2023/01/18 07:55:53;;;;;;;11.43;7.80;;;6.40;93.20;;;;;;5013239;28;20029;-55
2023/01/18 07:58:19;;;;;;;10.80;8.00;;;6.40;93.80;;;;;;5024264;28;20037;-54
2023/01/18 08:00:45;;;;;;;9.85;7.45;;;6.50;95.10;;;;;;5028075;28;20138;-53
2023/01/18 08:03:13;;;;;;;9.98;7.57;;;6.70;95.90;;;;;;5019768;28;20044;-52
2023/01/18 08:05:39;;;;;;;13.30;8.57;;;6.90;97.10;;;;;;5026551;28;20040;-54
2023/01/18 08:08:08;;;;;;;12.40;8.52;;;7.10;98.20;;;;;;5024165;28;20167;-55
2023/01/18 08:10:34;;;;;;;8.85;7.00;;;7.40;98.90;;;;;;5024173;28;20037;-53
2023/01/18 08:13:00;;;;;;;10.65;7.53;;;7.70;99.20;;;;;;5038016;28;20029;-58
2023/01/18 08:15:26;;;;;;;14.73;9.25;;;8.00;99.30;;;;;;5029223;28;20033;-55
2023/01/18 08:17:54;;;;;;;10.68;7.15;;;8.30;99.30;;;;;;5029186;28;20483;-55
2023/01/18 08:20:20;;;;;;;9.63;7.00;;;8.50;99.20;;;;;;5019624;28;20017;-55
2023/01/18 08:22:46;;;;;;;13.95;7.97;;;8.80;98.50;;;;;;5027216;28;20040;-55
2023/01/18 08:25:12;;;;;;;11.38;6.88;;;9.00;98.10;;;;;;5016111;28;20041;-56
2023/01/18 08:27:38;;;;;;;10.40;7.07;;;9.20;97.70;;;;;;5013809;28;20145;-56
2023/01/18 08:30:05;;;;;;;9.90;6.78;;;9.30;97.30;;;;;;5013624;28;20172;-56
2023/01/18 08:32:31;;;;;;;8.88;6.22;;;9.50;97.00;;;;;;5014433;28;20048;-56
2023/01/18 08:34:57;;;;;;;7.97;6.18;;;9.60;96.70;;;;;;5016514;28;20117;-54
2023/01/18 08:37:22;;;;;;;11.88;6.38;;;9.80;96.40;;;;;;5023737;28;20795;-57
2023/01/18 08:39:48;;;;;;;12.27;7.88;;;9.90;96.10;;;;;;5029923;28;20033;-57
2023/01/18 08:42:14;;;;;;;8.40;6.05;;;10.00;95.80;;;;;;5008384;28;20111;-56
2023/01/18 08:44:40;;;;;;;10.90;6.68;;;10.20;95.50;;;;;;5021734;28;20085;-57
2023/01/18 08:47:06;;;;;;;13.38;6.95;;;10.30;95.20;;;;;;5011541;28;20038;-55
2023/01/18 08:49:32;;;;;;;11.85;6.93;;;10.40;94.90;;;;;;5023438;28;20065;-56
2023/01/18 08:51:58;;;;;;;9.73;5.80;;;10.40;94.60;;;;;;5016547;28;20047;-54
2023/01/18 08:54:23;;;;;;;9.20;5.80;;;10.50;94.30;;;;;;5027502;28;20060;-56
2023/01/18 08:56:50;;;;;;;8.60;5.70;;;10.60;94.20;;;;;;5019370;28;20029;-55
2023/01/18 08:59:16;;;;;;;9.10;6.25;;;10.70;94.10;;;;;;5007795;28;20133;-56
2023/01/18 09:01:42;;;;;;;8.00;5.82;;;10.80;93.90;;;;;;5025406;28;20061;-55
2023/01/18 09:04:08;;;;;;;7.97;5.63;;;10.90;93.80;;;;;;5028335;28;20179;-56
2023/01/18 09:06:33;;;;;;;9.40;6.50;;;11.00;93.60;;;;;;5026651;28;20037;-55
2023/01/18 09:09:00;;;;;;;9.82;6.38;;;11.10;93.30;;;;;;5021310;28;20045;-56
2023/01/18 09:11:25;;;;;;;7.25;5.70;;;11.20;92.90;;;;;;5016251;28;20131;-55
2023/01/18 09:13:55;;;;;;;7.13;5.65;;;11.30;92.70;;;;;;5013471;28;20033;-55
2023/01/18 09:16:21;;;;;;;7.70;5.45;;;11.40;92.50;;;;;;5006305;28;20029;-56
2023/01/18 09:18:49;;;;;;;7.25;5.40;;;11.40;92.40;;;;;;5009188;28;20440;-56
2023/01/18 09:21:19;;;;;;;6.07;4.68;;;11.50;92.30;;;;;;5027064;28;20021;-56
2023/01/18 09:23:47;;;;;;;6.90;5.37;;;11.50;92.20;;;;;;5007803;28;20127;-57
2023/01/18 09:26:19;;;;;;;8.68;5.22;;;11.60;92.00;;;;;;5016301;28;20402;-55
2023/01/18 09:28:52;;;;;;;7.78;5.97;;;11.70;91.80;;;;;;5003968;28;20048;-58
2023/01/18 09:31:20;;;;;;;6.60;5.68;;;11.80;91.50;;;;;;5013171;28;20037;-57
2023/01/18 09:33:46;;;;;;;10.50;5.93;;;11.80;91.20;;;;;;5021101;28;20024;-58
2023/01/18 09:36:13;;;;;;;6.75;4.60;;;11.80;91.00;;;;;;5018762;28;20041;-55
2023/01/18 09:38:40;;;;;;;6.68;5.00;;;11.90;90.90;;;;;;5014152;28;20095;-55
2023/01/18 09:41:19;;;;;;;7.18;5.32;;;11.90;90.80;;;;;;5017604;28;20041;-56
2023/01/18 09:43:51;;;;;;;7.05;4.78;;;12.00;90.60;;;;;;5022966;28;20083;-55
2023/01/18 09:46:20;;;;;;;7.18;5.00;;;12.00;90.50;;;;;;5021579;28;20059;-53
2023/01/18 09:48:56;;;;;;;5.32;4.35;;;12.10;90.40;;;;;;5021531;28;20925;-56
2023/01/18 09:51:40;;;;;;;8.15;5.22;;;12.10;90.30;;;;;;5010101;28;20126;-58
2023/01/18 09:54:30;;;;;;;6.45;4.82;;;12.10;90.20;;;;;;5004143;28;20044;-56
2023/01/18 09:57:29;;;;;;;8.27;5.22;;;12.20;90.00;;;;;;5011540;28;20166;-56
2023/01/18 09:59:59;;;;;;;7.75;5.18;;;12.20;89.60;;;;;;5004029;28;20582;-55
2023/01/18 10:02:31;;;;;;;6.65;5.05;;;12.20;89.40;;;;;;5018060;28;20496;-56
2023/01/18 10:05:16;;;;;;;8.90;5.53;;;12.20;89.10;;;;;;5010444;28;20345;-54
2023/01/18 10:08:01;;;;;;;9.73;5.05;;;12.20;88.90;;;;;;5013946;28;20033;-54
2023/01/18 10:10:48;;;;;;;8.65;5.07;;;12.30;88.90;;;;;;5017588;28;20040;-57
2023/01/18 10:13:42;;;;;;;8.65;4.93;;;12.30;89.00;;;;;;4996805;28;21024;-57
2023/01/18 10:16:13;;;;;;;5.35;4.30;;;12.40;88.90;;;;;;5009629;28;20033;-55
2023/01/18 10:18:47;;;;;;;;;;;12.40;88.60;;;;;;5014545;28;20271;-54
2023/01/18 10:21:32;;;;;;;9.23;5.60;;;12.40;88.40;;;;;;5003935;28;19917;-54
2023/01/18 10:24:09;;;;;;;7.70;5.35;;;12.50;88.50;;;;;;5014173;28;20037;-57
2023/01/18 10:26:37;;;;;;;7.82;4.93;;;12.50;88.20;;;;;;5010975;28;20412;-56
2023/01/18 10:29:31;;;;;;;6.57;4.60;;;12.50;88.10;;;;;;5024237;28;21015;-57
2023/01/18 10:32:01;;;;;;;7.68;4.70;;;12.60;88.00;;;;;;5016476;28;20025;-58
2023/01/18 10:34:32;;;;;;;9.65;5.32;;;12.60;88.00;;;;;;5012054;28;20969;-54
2023/01/18 10:37:13;;;;;;;5.22;4.30;;;12.60;87.90;;;;;;5019171;28;20208;-58
2023/01/18 10:40:00;;;;;;;7.22;4.55;;;12.60;87.60;;;;;;5024025;28;20040;-55
2023/01/18 10:42:42;;;;;;;7.40;4.43;;;12.60;87.70;;;;;;4995414;28;20468;-58
2023/01/18 10:45:28;;;;;;;6.35;5.13;;;12.70;87.80;;;;;;5029814;28;20057;-57
2023/01/18 10:47:57;;;;;;;7.03;4.10;;;12.70;87.60;;;;;;5002230;28;20033;-58
2023/01/18 10:50:35;;;;;;;9.57;5.05;;;12.70;87.50;;;;;;5014611;28;20040;-57
2023/01/18 10:53:26;;;;;;;6.25;4.78;;;12.80;87.60;;;;;;4998161;28;20165;-56
2023/01/18 10:55:53;;;;;;;12.13;5.80;;;12.80;87.30;;;;;;5013256;28;20037;-55
2023/01/18 10:58:32;;;;;;;7.57;4.75;;;12.80;87.20;;;;;;5020924;28;20195;-55
2023/01/18 11:00:59;;;;;;;6.60;4.97;;;12.90;87.00;;;;;;5021550;28;20029;-56
2023/01/18 11:03:27;;;;;;;6.57;4.80;;;12.90;86.90;;;;;;5017296;28;20029;-56
2023/01/18 11:06:02;;;;;;;9.43;5.30;;;13.00;87.00;;;;;;5025257;28;20041;-55
2023/01/18 11:08:31;;;;;;;7.45;4.68;;;13.00;86.70;;;;;;5025861;28;20024;-55
2023/01/18 11:11:11;;;;;;;10.98;4.90;;;13.00;86.60;;;;;;5017128;28;20044;-58
2023/01/18 11:13:48;;;;;;;7.90;4.85;;;13.10;86.30;;;;;;5022075;28;20275;-56
2023/01/18 11:16:22;;;;;;;6.65;4.60;;;13.10;86.10;;;;;;5025250;28;20038;-57
2023/01/18 11:19:14;;;;;;;6.70;4.38;;;13.10;86.20;;;;;;5000327;28;20037;-54
2023/01/18 11:21:40;;;;;;;7.28;4.53;;;13.10;86.30;;;;;;5007547;28;20038;-57
2023/01/18 11:24:27;;;;;;;10.25;4.95;;;13.10;86.10;;;;;;5015050;28;20044;-57
2023/01/18 11:27:00;;;;;;;7.47;4.70;;;13.10;85.90;;;;;;5011493;28;20033;-55
2023/01/18 11:29:33;;;;;;;7.13;5.00;;;13.20;86.00;;;;;;5012509;28;20029;-56
2023/01/18 11:32:05;;;;;;;9.48;5.03;;;13.20;86.00;;;;;;5005315;28;20041;-55
2023/01/18 11:34:45;;;;;;;6.53;4.55;;;13.20;85.80;;;;;;5007870;28;20415;-55
2023/01/18 11:37:30;;;;;;;9.85;5.20;;;13.20;85.70;;;;;;5013387;28;20171;-55
2023/01/18 11:39:56;;;;;;;6.60;4.50;;;13.20;85.70;;;;;;5017246;28;20037;-54
2023/01/18 11:42:33;;;;;;;7.80;4.30;;;13.20;85.80;;;;;;5017210;28;20026;-56
2023/01/18 11:45:24;;;;;;;6.68;4.20;;;13.20;85.70;;;;;;5011700;28;21413;-55
2023/01/18 11:48:11;;;;;;;8.00;4.82;;;13.30;85.70;;;;;;5013226;28;20033;-57
2023/01/18 11:50:48;;;;;;;6.35;4.65;;;13.30;85.50;;;;;;5001602;28;20539;-56
2023/01/18 11:53:31;;;;;;;6.50;4.50;;;13.40;85.60;;;;;;4986999;28;21740;-54
2023/01/18 11:56:05;;;;;;;8.20;4.78;;;13.40;85.50;;;;;;5001195;28;20030;-57
2023/01/18 11:58:32;;;;;;;5.25;4.40;;;13.40;85.20;;;;;;5002923;28;20034;-56
2023/01/18 12:01:10;;;;;;;6.05;4.10;;;13.40;85.30;;;;;;4990329;28;20039;-56
2023/01/18 12:04:13;;;;;;;7.13;4.47;;;13.50;85.10;;;;;;5000281;28;20057;-55
2023/01/18 12:07:07;;;;;;;9.18;5.28;;;13.50;85.00;;;;;;5009228;28;20026;-54
2023/01/18 12:09:54;;;;;;;7.90;4.88;;;13.50;85.00;;;;;;5001194;28;20055;-55
2023/01/18 12:12:41;;;;;;;8.18;4.70;;;13.50;84.70;;;;;;5008310;28;20041;-54
2023/01/18 12:15:24;;;;;;;5.60;4.40;;;13.50;84.40;;;;;;5024236;28;20531;-56
2023/01/18 12:18:10;;;;;;;6.28;4.80;;;13.60;84.50;;;;;;5019961;28;20872;-56
2023/01/18 12:21:06;;;;;;;7.43;4.90;;;13.60;84.30;;;;;;5009558;28;20048;-55
2023/01/18 12:23:50;;;;;;;7.07;4.38;;;13.50;84.10;;;;;;5019755;28;20037;-56
2023/01/18 12:26:35;;;;;;;7.00;4.20;;;13.50;84.20;;;;;;5011452;28;20136;-56
2023/01/18 12:29:23;;;;;;;8.45;4.68;;;13.50;84.40;;;;;;5023492;28;20434;-53
2023/01/18 12:32:20;;;;;;;6.97;4.70;;;13.50;84.30;;;;;;5021036;28;20037;-54
2023/01/18 12:34:59;;;;;;;6.60;4.88;;;13.50;84.20;;;;;;5011311;28;20044;-55
2023/01/18 12:38:03;;;;;;;9.45;4.45;;;13.50;84.20;;;;;;5008941;28;20025;-56
2023/01/18 12:40:54;;;;;;;13.20;5.10;;;13.50;84.00;;;;;;5017751;28;21241;-52
2023/01/18 12:43:28;;;;;;;6.60;4.90;;;13.50;84.10;;;;;;5005713;28;20049;-56
2023/01/18 12:46:10;;;;;;;7.18;4.40;;;13.50;84.20;;;;;;5015819;28;20581;-56
2023/01/18 12:48:44;;;;;;;6.05;4.43;;;13.50;84.10;;;;;;5014656;28;20176;-51
2023/01/18 12:51:23;;;;;;;9.05;5.25;;;13.50;84.00;;;;;;4995343;28;20033;-55
2023/01/18 12:54:30;;;;;;;10.95;5.70;;;13.40;84.00;;;;;;5014380;28;20033;-56
2023/01/18 12:56:57;;;;;;;8.25;5.07;;;13.40;84.20;;;;;;4988189;28;20049;-56
2023/01/18 12:59:46;;;;;;;7.35;5.07;;;13.50;84.30;;;;;;4985506;28;20048;-56
2023/01/18 13:02:28;;;;;;;7.38;4.82;;;13.50;84.20;;;;;;5003733;28;20033;-56
2023/01/18 13:05:01;;;;;;;;;;;13.50;84.20;;;;;;5015274;28;20037;-55
2023/01/18 13:07:33;;;;;;;5.45;4.10;;;13.50;84.10;;;;;;5008790;28;19960;-54
2023/01/18 13:09:59;;;;;;;7.72;4.53;;;13.50;84.30;;;;;;5014458;28;20043;-54
2023/01/18 13:12:26;;;;;;;8.98;4.38;;;13.50;84.30;;;;;;5012130;28;20040;-56
2023/01/18 13:15:03;;;;;;;9.77;4.72;;;13.50;84.30;;;;;;5022832;28;20039;-57
2023/01/18 13:17:57;;;;;;;7.03;4.45;;;13.60;84.20;;;;;;5016920;28;20040;-56
2023/01/18 13:20:40;;;;;;;6.97;4.25;;;13.60;84.20;;;;;;5012741;28;20162;-55
2023/01/18 13:23:27;;;;;;;5.15;4.13;;;13.60;84.10;;;;;;5015256;28;20485;-57
2023/01/18 13:26:20;;;;;;;7.20;4.75;;;13.60;84.10;;;;;;5012002;28;20114;-56
2023/01/18 13:28:46;;;;;;;7.25;4.25;;;13.60;84.00;;;;;;5006075;28;20040;-57
2023/01/18 13:31:12;;;;;;;6.72;4.43;;;13.60;84.00;;;;;;5016190;28;20037;-57
2023/01/18 13:33:44;;;;;;;6.18;4.05;;;13.60;83.80;;;;;;5023145;28;20024;-57
2023/01/18 13:36:16;;;;;;;7.82;4.45;;;13.60;83.60;;;;;;5016880;28;20126;-56
2023/01/18 13:38:56;;;;;;;6.80;4.50;;;13.60;83.50;;;;;;5022336;28;20925;-56
2023/01/18 13:41:28;;;;;;;8.57;4.68;;;13.60;83.50;;;;;;5018593;28;20032;-56
2023/01/18 13:44:00;;;;;;;9.68;4.57;;;13.50;83.50;;;;;;5015403;28;20053;-53